Time;durP1;ratioP1;P1;durP2;ratioP2;P2;SDS_P1;SDS_P2;PMS_P1;PMS_P2;Temp;Humidity;BMP_temperature;BMP_pressure;BME280_temperature;BME280_humidity;BME280_pressure;Samples;Min_cycle;Max_cycle;Signal;HPM_P1;HPM_P2
2023/09/12 00:00:46;;;;;;;22.85;14.95;;;;;;;24.88;56.24;99580.38;5034675;28;20072;-79
2023/09/12 00:03:13;;;;;;;17.15;14.80;;;;;;;24.81;56.18;99580.25;5034304;28;20046;-80
2023/09/12 00:05:40;;;;;;;17.80;14.57;;;;;;;24.73;56.65;99583.91;5034444;28;20085;-79
2023/09/12 00:08:06;;;;;;;20.00;17.00;;;;;;;24.69;57.27;99601.44;5016925;28;20046;-79
2023/09/12 00:10:33;;;;;;;20.13;15.82;;;;;;;24.66;57.09;99585.66;5034848;28;20053;-79
2023/09/12 00:13:00;;;;;;;21.98;17.80;;;;;;;24.64;57.70;99584.16;5034153;28;20041;-79
2023/09/12 00:15:27;;;;;;;23.63;17.83;;;;;;;24.65;57.58;99589.34;5016774;28;20042;-79
2023/09/12 00:17:54;;;;;;;19.33;15.75;;;;;;;24.66;57.86;99590.19;5016734;28;20076;-80
2023/09/12 00:20:21;;;;;;;23.85;17.33;;;;;;;24.66;57.99;99592.88;5016593;28;20049;-79
2023/09/12 00:22:47;;;;;;;23.25;17.33;;;;;;;24.67;58.03;99600.75;5034010;28;20469;-78
2023/09/12 00:25:14;;;;;;;23.92;19.15;;;;;;;24.69;58.54;99612.19;5034377;28;20045;-79
2023/09/12 00:27:40;;;;;;;24.65;19.55;;;;;;;24.72;58.38;99600.22;5034118;28;20103;-79
2023/09/12 00:30:07;;;;;;;28.38;19.65;;;;;;;24.74;58.80;99549.72;5034244;28;20085;-79
2023/09/12 00:32:34;;;;;;;24.92;19.52;;;;;;;24.78;58.16;99534.06;5016280;28;20057;-79
2023/09/12 00:35:00;;;;;;;24.52;19.65;;;;;;;24.79;58.47;99533.88;5034023;28;20081;-79
2023/09/12 00:37:27;;;;;;;22.70;17.88;;;;;;;24.79;58.61;99547.34;5033899;28;20096;-78
2023/09/12 00:39:53;;;;;;;21.27;18.65;;;;;;;24.78;58.66;99560.97;5016436;28;20096;-79
2023/09/12 00:42:20;;;;;;;25.90;19.60;;;;;;;24.77;58.41;99575.44;5033695;28;20096;-80
2023/09/12 00:44:46;;;;;;;20.10;17.02;;;;;;;24.78;58.69;99571.75;5016313;28;20049;-78
2023/09/12 00:47:14;;;;;;;27.98;20.75;;;;;;;24.77;58.56;99554.75;5033713;28;20103;-79
2023/09/12 00:49:41;;;;;;;21.90;18.35;;;;;;;24.80;58.38;99564.28;5033951;28;20052;-80
2023/09/12 00:52:08;;;;;;;21.33;18.88;;;;;;;24.77;58.50;99565.50;5016116;28;20437;-78
2023/09/12 00:54:35;;;;;;;28.38;20.58;;;;;;;24.75;58.52;99564.88;5033778;28;20103;-79
2023/09/12 00:57:01;;;;;;;23.60;19.88;;;;;;;24.72;58.53;99578.69;5032957;28;20077;-79
2023/09/12 00:59:28;;;;;;;21.77;19.20;;;;;;;24.69;58.81;99557.53;5033001;28;20146;-79
2023/09/12 01:01:56;;;;;;;24.75;20.50;;;;;;;24.68;58.71;99563.94;5015473;28;20061;-78
2023/09/12 01:04:22;;;;;;;23.50;20.38;;;;;;;24.67;59.15;99548.81;5033571;28;20557;-78
2023/09/12 01:07:02;;;;;;;24.60;20.45;;;;;;;24.66;58.95;99512.13;5033618;28;20048;-78
2023/09/12 01:09:28;;;;;;;27.48;22.27;;;;;;;24.65;59.31;99535.53;5033453;28;20057;-79
2023/09/12 01:11:56;;;;;;;26.48;21.73;;;;;;;24.66;59.28;99552.50;5032988;28;20132;-78
2023/09/12 01:14:23;;;;;;;27.60;22.27;;;;;;;24.67;59.51;99579.22;5033185;28;20378;-79
2023/09/12 01:16:49;;;;;;;25.00;19.80;;;;;;;24.68;59.07;99590.84;5033313;28;20045;-78
2023/09/12 01:19:19;;;;;;;30.00;23.45;;;;;;;24.67;59.67;99556.88;5015644;28;20104;-78
2023/09/12 01:21:58;;;;;;;26.58;20.05;;;;;;;24.64;60.10;99530.34;5032784;28;20654;-78
2023/09/12 01:24:25;;;;;;;22.45;18.33;;;;;;;24.64;59.10;99543.78;5015689;28;20111;-79
2023/09/12 01:27:23;;;;;;;23.38;19.35;;;;;;;24.57;59.64;99567.91;5032839;28;20037;-79
2023/09/12 01:29:55;;;;;;;22.38;19.50;;;;;;;24.58;59.86;99589.25;5033124;28;20055;-79
2023/09/12 01:32:22;;;;;;;26.48;20.98;;;;;;;24.56;59.02;99622.75;5032725;28;20491;-78
2023/09/12 01:34:48;;;;;;;27.50;21.42;;;;;;;24.52;58.71;99640.28;5032957;28;20123;-79
2023/09/12 01:37:15;;;;;;;29.70;23.33;;;;;;;24.43;59.22;99640.34;5015220;28;20708;-79
2023/09/12 01:39:42;;;;;;;27.92;23.17;;;;;;;24.32;59.23;99625.47;5015105;28;20095;-79
2023/09/12 01:42:17;;;;;;;31.38;23.45;;;;;;;24.19;60.35;99658.34;5014980;28;20072;-78
2023/09/12 01:44:45;;;;;;;26.55;23.48;;;;;;;24.12;59.99;99689.69;5032350;28;20041;-79
2023/09/12 01:47:14;;;;;;;26.35;21.98;;;;;;;24.02;60.19;99713.22;5032479;28;20189;-78
2023/09/12 01:49:43;;;;;;;22.38;19.63;;;;;;;23.92;60.38;99703.53;5014805;28;20478;-80
2023/09/12 01:52:10;;;;;;;19.33;14.93;;;;;;;23.87;59.85;99664.75;5032147;28;20584;-79
2023/09/12 01:54:38;;;;;;;15.45;11.98;;;;;;;23.79;59.85;99636.06;5032471;28;20045;-78
2023/09/12 01:57:05;;;;;;;9.77;8.20;;;;;;;23.73;59.41;99624.19;5014644;28;20048;-79
2023/09/12 01:59:32;;;;;;;12.02;9.27;;;;;;;23.68;59.82;99635.47;5032160;28;20501;-78
2023/09/12 02:01:58;;;;;;;8.90;7.50;;;;;;;23.64;59.49;99631.47;5014267;28;20046;-78
2023/09/12 02:04:25;;;;;;;8.82;6.80;;;;;;;23.60;59.55;99605.13;5014526;28;20049;-79
2023/09/12 02:06:52;;;;;;;8.25;7.45;;;;;;;23.57;59.56;99571.38;5014636;28;20053;-79
2023/09/12 02:09:18;;;;;;;8.90;8.00;;;;;;;23.54;59.46;99569.03;5014398;28;20100;-78
2023/09/12 02:11:45;;;;;;;8.98;7.22;;;;;;;23.50;59.86;99532.81;5031983;28;20099;-79
2023/09/12 02:14:11;;;;;;;11.63;7.78;;;;;;;23.47;59.85;99525.13;5014550;28;20123;-78
2023/09/12 02:16:38;;;;;;;9.43;8.50;;;;;;;23.42;59.93;99488.03;5014534;28;20116;-79
2023/09/12 02:19:09;;;;;;;10.75;8.38;;;;;;;23.36;60.38;99503.00;5014971;28;20049;-78
2023/09/12 02:21:36;;;;;;;7.82;7.07;;;;;;;23.35;60.52;99474.50;5014292;28;20053;-79
2023/09/12 02:24:03;;;;;;;12.70;7.03;;;;;;;23.34;60.41;99494.31;5014450;28;20076;-79
2023/09/12 02:26:30;;;;;;;10.40;7.50;;;;;;;23.32;60.48;99525.84;5014505;28;20098;-79
2023/09/12 02:28:56;;;;;;;10.40;8.48;;;;;;;23.30;60.11;99512.56;5014345;28;20115;-79
2023/09/12 02:31:23;;;;;;;11.20;9.02;;;;;;;23.30;60.37;99496.47;5014114;28;20056;-79
2023/09/12 02:33:49;;;;;;;10.57;8.52;;;;;;;23.28;60.35;99501.19;5013875;28;20491;-78
2023/09/12 02:36:16;;;;;;;9.48;6.95;;;;;;;23.28;60.38;99486.91;5014117;28;20504;-79
2023/09/12 02:38:43;;;;;;;7.55;6.82;;;;;;;23.25;60.20;99482.75;5014278;28;20134;-80
2023/09/12 02:41:09;;;;;;;6.93;6.22;;;;;;;23.21;59.88;99494.84;5014073;28;20427;-79
2023/09/12 02:43:36;;;;;;;6.75;6.07;;;;;;;23.16;60.06;99483.81;5013857;28;20051;-78
2023/09/12 02:46:02;;;;;;;8.02;6.65;;;;;;;23.13;60.51;99471.56;5013878;28;20066;-79
2023/09/12 02:48:29;;;;;;;8.68;6.38;;;;;;;23.10;59.91;99455.81;5014286;28;20069;-79
2023/09/12 02:50:56;;;;;;;8.75;5.90;;;;;;;23.05;60.51;99455.50;5031563;28;20045;-79
2023/09/12 02:53:22;;;;;;;8.45;6.55;;;;;;;23.02;60.53;99462.06;5013853;28;20050;-79
2023/09/12 02:55:51;;;;;;;8.23;6.35;;;;;;;23.00;61.08;99464.13;5031421;28;20060;-79
2023/09/12 02:58:17;;;;;;;8.52;5.05;;;;;;;23.00;60.48;99445.31;5013722;28;20081;-79
2023/09/12 03:00:45;;;;;;;6.45;4.90;;;;;;;23.01;60.04;99422.84;5031178;28;20543;-80
2023/09/12 03:03:12;;;;;;;6.82;5.13;;;;;;;23.02;60.13;99434.38;5013451;28;20053;-79
2023/09/12 03:05:39;;;;;;;5.40;4.72;;;;;;;23.01;60.67;99449.69;5030159;28;20084;-79
2023/09/12 03:08:05;;;;;;;7.22;4.90;;;;;;;23.02;60.47;99455.84;5031182;28;20444;-79
2023/09/12 03:10:32;;;;;;;6.35;4.82;;;;;;;23.02;60.22;99455.84;5031353;28;20428;-79
2023/09/12 03:12:59;;;;;;;4.95;4.32;;;;;;;23.00;60.08;99458.75;5031013;28;20053;-79
2023/09/12 03:15:25;;;;;;;6.97;4.80;;;;;;;23.01;60.21;99444.31;5031074;28;20140;-80
2023/09/12 03:17:52;;;;;;;4.80;4.30;;;;;;;23.01;60.08;99427.34;5013564;28;20041;-79
2023/09/12 03:20:18;;;;;;;5.32;4.32;;;;;;;23.02;59.91;99421.81;5012922;28;20073;-79
2023/09/12 03:22:45;;;;;;;11.88;4.20;;;;;;;23.02;60.10;99439.75;5030754;28;20168;-79
2023/09/12 03:25:12;;;;;;;4.07;3.70;;;;;;;23.03;59.89;99454.88;5030956;28;20481;-79
2023/09/12 03:27:38;;;;;;;8.82;4.65;;;;;;;23.02;59.69;99456.72;5030858;28;20049;-78
2023/09/12 03:30:06;;;;;;;7.15;5.38;;;;;;;23.02;59.68;99472.81;5013504;28;20042;-79
2023/09/12 03:32:32;;;;;;;6.82;5.68;;;;;;;23.01;59.84;99457.72;5030773;28;20132;-79
2023/09/12 03:34:59;;;;;;;7.22;6.53;;;;;;;23.01;59.71;99473.84;5031057;28;20469;-78
2023/09/12 03:37:27;;;;;;;9.95;8.32;;;;;;;22.99;60.09;99453.56;5030914;28;20048;-79
2023/09/12 03:39:53;;;;;;;11.45;8.80;;;;;;;22.95;60.14;99450.34;5030920;28;20042;-79
2023/09/12 03:42:20;;;;;;;13.27;8.13;;;;;;;22.92;60.40;99466.84;5030454;28;20077;-79
2023/09/12 03:44:47;;;;;;;9.20;7.28;;;;;;;22.89;60.21;99468.03;5013182;28;20505;-81
2023/09/12 03:47:13;;;;;;;10.32;7.80;;;;;;;22.87;60.17;99461.97;5030728;28;20053;-79
2023/09/12 03:49:40;;;;;;;10.00;7.13;;;;;;;22.86;60.24;99459.47;5030744;28;20482;-80
2023/09/12 03:52:06;;;;;;;7.00;6.20;;;;;;;22.85;60.33;99444.38;5030521;28;20119;-78
2023/09/12 03:54:33;;;;;;;8.05;6.50;;;;;;;22.84;60.29;99448.09;5013111;28;20045;-79
2023/09/12 03:57:00;;;;;;;7.07;6.32;;;;;;;22.80;60.63;99439.53;5030534;28;20052;-80
2023/09/12 03:59:26;;;;;;;6.15;5.32;;;;;;;22.80;60.11;99447.59;5012968;28;20077;-79
2023/09/12 04:01:53;;;;;;;9.25;6.20;;;;;;;22.78;60.28;99439.75;5030522;28;20049;-79
2023/09/12 04:04:19;;;;;;;7.38;6.07;;;;;;;22.79;60.30;99443.25;5029478;28;20394;-79
2023/09/12 04:06:46;;;;;;;6.22;5.35;;;;;;;22.78;60.53;99450.47;5030600;28;20550;-79
2023/09/12 04:09:13;;;;;;;6.80;5.13;;;;;;;22.78;60.34;99461.22;5030642;28;20099;-79
2023/09/12 04:11:40;;;;;;;5.60;4.95;;;;;;;22.79;60.26;99478.13;5012619;28;20045;-78
2023/09/12 04:14:14;;;;;;;4.55;4.18;;;;;;;22.79;60.41;99480.81;5030722;28;20053;-79
2023/09/12 04:16:41;;;;;;;5.15;4.32;;;;;;;22.78;60.16;99484.50;5030543;28;20048;-80
2023/09/12 04:19:07;;;;;;;7.43;4.80;;;;;;;22.74;60.07;99486.72;5012977;28;20081;-79
2023/09/12 04:21:34;;;;;;;5.18;3.60;;;;;;;22.71;59.58;99491.56;5012448;28;20041;-80
2023/09/12 04:24:00;;;;;;;4.57;3.90;;;;;;;22.69;60.35;99493.59;5012815;28;20049;-78
2023/09/12 04:26:27;;;;;;;6.43;4.25;;;;;;;22.64;60.12;99486.91;5030549;28;20129;-80
2023/09/12 04:28:54;;;;;;;5.88;4.07;;;;;;;22.61;60.09;99470.34;5030533;28;20052;-80
2023/09/12 04:31:20;;;;;;;6.30;4.60;;;;;;;22.59;60.21;99462.47;5030354;28;20103;-78
2023/09/12 04:33:47;;;;;;;6.40;4.65;;;;;;;22.56;60.17;99468.16;5033705;28;20045;-80
2023/09/12 04:36:13;;;;;;;4.70;4.18;;;;;;;22.55;60.24;99465.66;5034043;28;20084;-79
2023/09/12 04:38:40;;;;;;;4.65;4.00;;;;;;;22.52;60.53;99462.28;5033757;28;20046;-81
2023/09/12 04:41:07;;;;;;;5.10;4.40;;;;;;;22.51;60.28;99455.22;5033982;28;20052;-79
2023/09/12 04:43:34;;;;;;;5.03;4.30;;;;;;;22.49;60.67;99446.53;5015892;28;20053;-79
2023/09/12 04:46:00;;;;;;;7.30;4.28;;;;;;;22.47;60.85;99440.50;5016311;28;20049;-81
2023/09/12 04:48:27;;;;;;;4.68;4.22;;;;;;;22.46;60.90;99449.53;5033740;28;20481;-80
2023/09/12 04:50:55;;;;;;;9.40;4.60;;;;;;;22.46;60.98;99462.97;5033592;28;20638;-80
2023/09/12 04:53:21;;;;;;;5.63;3.88;;;;;;;22.45;60.88;99458.59;5033606;28;20099;-79
2023/09/12 04:55:48;;;;;;;4.15;3.75;;;;;;;22.45;60.75;99449.72;5033821;28;20103;-80
2023/09/12 04:58:15;;;;;;;4.57;4.18;;;;;;;22.45;60.99;99447.88;5033779;28;20037;-80
2023/09/12 05:00:41;;;;;;;4.70;4.05;;;;;;;22.44;60.99;99456.94;5033696;28;20085;-80
2023/09/12 05:03:08;;;;;;;4.50;3.85;;;;;;;22.41;60.64;99446.56;5033280;28;20084;-79
2023/09/12 05:05:38;;;;;;;3.95;3.63;;;;;;;22.37;60.65;99431.81;5033473;28;20057;-79
2023/09/12 05:08:04;;;;;;;5.88;4.40;;;;;;;22.34;60.65;99449.09;5016008;28;20103;-79
2023/09/12 05:10:31;;;;;;;4.57;4.10;;;;;;;22.31;61.08;99453.97;5033237;28;20045;-79
2023/09/12 05:12:58;;;;;;;5.20;4.20;;;;;;;22.29;60.85;99451.47;5015189;28;20064;-79
2023/09/12 05:15:24;;;;;;;4.82;4.32;;;;;;;22.24;60.94;99470.72;5032122;28;20052;-79
2023/09/12 05:17:51;;;;;;;6.40;4.72;;;;;;;22.23;61.21;99477.09;5033229;28;20049;-79
2023/09/12 05:20:18;;;;;;;8.05;4.50;;;;;;;22.22;61.15;99496.03;5033289;28;20049;-80
2023/09/12 05:22:44;;;;;;;5.00;4.43;;;;;;;22.19;61.21;99497.22;5033030;28;20061;-80
2023/09/12 05:25:11;;;;;;;5.35;4.45;;;;;;;22.19;61.20;99499.03;5033041;28;20081;-83
2023/09/12 05:27:37;;;;;;;6.45;4.53;;;;;;;22.18;61.21;99492.03;5032955;28;20056;-81
2023/09/12 05:30:04;;;;;;;5.95;4.60;;;;;;;22.17;61.40;99491.19;5033131;28;20513;-80
2023/09/12 05:32:31;;;;;;;5.95;4.68;;;;;;;22.17;61.74;99501.06;5032496;28;20048;-82
2023/09/12 05:34:58;;;;;;;8.57;4.65;;;;;;;22.15;61.30;99501.25;5032835;28;20404;-81
2023/09/12 05:37:40;;;;;;;5.95;4.25;;;;;;;22.16;61.30;99505.59;5033052;28;20384;-79
2023/09/12 05:40:07;;;;;;;5.15;4.57;;;;;;;22.14;61.50;99499.56;5032887;28;20080;-79
2023/09/12 05:42:34;;;;;;;6.15;4.50;;;;;;;22.13;61.85;99495.22;5032526;28;20132;-81
2023/09/12 05:45:00;;;;;;;6.18;4.70;;;;;;;22.13;62.01;99497.91;5032122;28;20496;-80
2023/09/12 05:47:27;;;;;;;8.35;4.28;;;;;;;22.13;62.12;99504.09;5032895;28;20084;-80
2023/09/12 05:49:54;;;;;;;5.63;4.88;;;;;;;22.14;62.38;99491.53;5015178;28;20393;-80
2023/09/12 05:52:20;;;;;;;5.05;4.07;;;;;;;22.15;62.07;99506.59;5032552;28;20444;-81
2023/09/12 05:54:46;;;;;;;6.43;4.22;;;;;;;22.14;62.02;99496.91;5032563;28;20073;-82
2023/09/12 05:57:13;;;;;;;5.25;4.70;;;;;;;22.16;62.26;99505.59;5032434;28;20054;-79
2023/09/12 05:59:40;;;;;;;5.55;4.57;;;;;;;22.16;62.07;99510.94;5031200;28;20049;-79
2023/09/12 06:02:09;;;;;;;6.63;5.18;;;;;;;22.17;61.96;99509.97;5032235;28;20049;-79
2023/09/12 06:04:36;;;;;;;6.95;4.95;;;;;;;22.17;61.88;99498.41;5031262;28;20056;-79
2023/09/12 06:07:03;;;;;;;8.73;5.25;;;;;;;22.16;61.89;99494.03;5032259;28;20056;-80
2023/09/12 06:09:30;;;;;;;7.22;5.53;;;;;;;22.13;62.28;99487.19;5032292;28;20084;-80
2023/09/12 06:11:56;;;;;;;5.68;5.18;;;;;;;22.10;61.67;99484.84;5031849;28;20140;-79
2023/09/12 06:14:23;;;;;;;12.32;6.13;;;;;;;22.08;62.41;99486.84;5032109;28;20045;-80
2023/09/12 06:16:49;;;;;;;9.45;5.82;;;;;;;22.07;62.06;99483.34;5032343;28;20077;-80
2023/09/12 06:19:17;;;;;;;6.28;5.00;;;;;;;22.05;62.64;99479.97;5031918;28;20103;-80
2023/09/12 06:21:44;;;;;;;7.28;5.55;;;;;;;22.06;62.61;99484.34;5031879;28;20414;-81
2023/09/12 06:24:20;;;;;;;8.32;5.88;;;;;;;22.07;62.95;99487.84;5032055;28;20051;-80
2023/09/12 06:26:47;;;;;;;6.82;5.32;;;;;;;22.08;62.67;99485.00;5032082;28;20056;-80
2023/09/12 06:29:14;;;;;;;6.90;5.25;;;;;;;22.08;62.72;99490.38;5031838;28;20094;-79
2023/09/12 06:31:41;;;;;;;7.55;5.40;;;;;;;22.11;62.83;99497.22;5031722;28;20301;-78
2023/09/12 06:34:08;;;;;;;9.30;5.72;;;;;;;22.12;62.92;99499.75;5030656;28;20063;-79
2023/09/12 06:36:36;;;;;;;8.40;5.78;;;;;;;22.15;63.02;99498.56;5014255;28;20088;-79
2023/09/12 06:39:05;;;;;;;10.38;5.93;;;;;;;22.17;63.15;99493.03;5031611;28;20045;-78
2023/09/12 06:41:32;;;;;;;7.47;5.25;;;;;;;22.21;63.40;99507.78;5031209;28;20050;-81
2023/09/12 06:43:58;;;;;;;8.38;5.90;;;;;;;22.24;63.30;99518.16;5031801;28;20128;-78
2023/09/12 06:46:26;;;;;;;9.18;5.78;;;;;;;22.28;63.66;99519.50;5031733;28;20145;-79
2023/09/12 06:48:53;;;;;;;7.35;6.20;;;;;;;22.34;63.92;99531.38;5014078;28;20088;-79
2023/09/12 06:51:25;;;;;;;6.75;5.72;;;;;;;22.37;64.18;99539.94;5031455;28;20484;-78
2023/09/12 06:53:57;;;;;;;9.07;6.45;;;;;;;22.44;63.90;99545.44;5014614;28;20049;-79
2023/09/12 06:56:24;;;;;;;8.15;6.38;;;;;;;22.46;63.61;99547.97;5030661;28;20103;-81
2023/09/12 06:58:53;;;;;;;6.40;5.70;;;;;;;22.50;63.44;99554.66;5031183;28;20053;-79
2023/09/12 07:01:19;;;;;;;7.10;5.93;;;;;;;22.50;63.42;99563.53;5031199;28;20049;-80
2023/09/12 07:03:46;;;;;;;7.50;6.15;;;;;;;22.50;63.09;99568.88;5031154;28;20056;-78
2023/09/12 07:06:13;;;;;;;8.13;5.95;;;;;;;22.51;63.10;99565.19;5031228;28;20057;-80
2023/09/12 07:08:40;;;;;;;9.32;6.40;;;;;;;22.52;62.79;99574.09;5031081;28;20397;-78
2023/09/12 07:11:06;;;;;;;8.02;6.57;;;;;;;22.50;62.94;99586.84;5031237;28;20064;-80
2023/09/12 07:13:33;;;;;;;8.20;6.18;;;;;;;22.48;62.68;99600.41;5030883;28;20053;-80
2023/09/12 07:16:03;;;;;;;7.60;6.35;;;;;;;22.44;62.62;99608.97;5031059;28;20132;-80
2023/09/12 07:18:34;;;;;;;10.27;6.90;;;;;;;22.38;62.55;99605.09;5031051;28;20045;-79
2023/09/12 07:21:02;;;;;;;6.85;5.95;;;;;;;22.32;62.83;99619.19;5030937;28;20041;-79
2023/09/12 07:23:30;;;;;;;7.85;6.40;;;;;;;22.27;62.82;99619.69;5030890;28;20052;-79
2023/09/12 07:25:59;;;;;;;8.45;6.65;;;;;;;22.21;63.23;99618.50;5031109;28;20085;-78
2023/09/12 07:28:26;;;;;;;7.78;6.32;;;;;;;22.16;63.53;99610.13;5031035;28;20411;-80
2023/09/12 07:30:54;;;;;;;8.07;6.55;;;;;;;22.11;63.46;99599.94;5030906;28;20057;-79
2023/09/12 07:33:21;;;;;;;7.88;6.47;;;;;;;22.10;63.52;99587.50;5030650;28;20045;-79
2023/09/12 07:35:51;;;;;;;9.82;6.38;;;;;;;22.08;63.58;99575.28;5030748;28;20057;-80
2023/09/12 07:38:19;;;;;;;7.07;6.25;;;;;;;22.08;63.99;99567.25;5030887;28;20045;-79
2023/09/12 07:40:46;;;;;;;8.48;6.28;;;;;;;22.10;64.20;99573.28;5013201;28;20737;-78
2023/09/12 07:43:12;;;;;;;8.23;6.90;;;;;;;22.11;64.37;99583.84;5030615;28;20448;-80
2023/09/12 07:45:39;;;;;;;8.38;7.47;;;;;;;22.14;64.18;99582.66;5013087;28;20539;-79
2023/09/12 07:48:08;;;;;;;7.75;6.95;;;;;;;22.16;64.68;99594.06;5030776;28;20077;-79
2023/09/12 07:50:34;;;;;;;9.65;7.10;;;;;;;22.20;64.48;99603.44;5030959;28;20393;-78
2023/09/12 07:53:01;;;;;;;7.95;7.15;;;;;;;22.22;64.70;99612.16;5030537;28;20107;-80
2023/09/12 07:55:30;;;;;;;7.93;6.57;;;;;;;22.25;64.58;99606.44;5030936;28;20111;-79
2023/09/12 07:57:57;;;;;;;7.82;6.97;;;;;;;22.28;64.59;99615.19;5030690;28;20038;-78
2023/09/12 08:00:24;;;;;;;9.73;7.90;;;;;;;22.30;64.61;99621.19;5030671;28;20103;-78
2023/09/12 08:02:50;;;;;;;11.50;7.57;;;;;;;22.29;64.32;99636.47;5030164;28;20550;-80
2023/09/12 08:05:18;;;;;;;8.98;7.45;;;;;;;22.31;64.30;99639.78;5030811;28;20053;-79
2023/09/12 08:07:45;;;;;;;11.25;8.68;;;;;;;22.31;64.48;99636.28;5032891;28;20042;-79
2023/09/12 08:10:12;;;;;;;9.98;8.52;;;;;;;22.29;64.21;99641.81;5034535;28;20444;-79
2023/09/12 08:12:38;;;;;;;8.95;7.95;;;;;;;22.28;64.36;99650.03;5016561;28;20124;-79
2023/09/12 08:15:06;;;;;;;11.70;8.32;;;;;;;22.26;64.48;99645.69;5034411;28;20053;-79
2023/09/12 08:17:32;;;;;;;10.50;8.30;;;;;;;22.26;64.61;99631.41;5034581;28;20053;-78
2023/09/12 08:19:59;;;;;;;10.57;8.02;;;;;;;22.25;64.72;99627.91;5016812;28;20041;-81
2023/09/12 08:22:25;;;;;;;9.35;8.15;;;;;;;22.25;64.89;99611.81;5033895;28;20119;-80
2023/09/12 08:24:52;;;;;;;12.45;9.18;;;;;;;22.26;64.73;99605.47;5033004;28;20046;-80
2023/09/12 08:27:18;;;;;;;11.10;8.38;;;;;;;22.27;64.67;99606.28;5034142;28;20440;-78
2023/09/12 08:29:48;;;;;;;16.33;8.35;;;;;;;22.29;64.92;99608.78;5016445;28;20045;-81
2023/09/12 08:32:14;;;;;;;8.40;7.57;;;;;;;22.31;64.75;99609.47;5016395;28;20056;-79
2023/09/12 08:34:41;;;;;;;11.68;10.18;;;;;;;22.32;65.18;99593.19;5034176;28;20050;-80
2023/09/12 08:37:07;;;;;;;10.52;9.25;;;;;;;22.34;64.89;99590.34;5034045;28;20103;-79
2023/09/12 08:39:45;;;;;;;10.13;9.02;;;;;;;22.33;66.09;99591.38;5033969;28;20053;-80
2023/09/12 08:42:13;;;;;;;10.02;8.80;;;;;;;22.38;64.95;99586.34;5033604;28;20053;-79
2023/09/12 08:44:43;;;;;;;9.65;8.63;;;;;;;22.38;65.58;99589.00;5033805;28;20664;-79
2023/09/12 08:47:12;;;;;;;9.15;8.10;;;;;;;22.40;64.91;99581.66;5033766;28;20124;-79
2023/09/12 08:49:38;;;;;;;10.40;9.30;;;;;;;22.43;65.02;99580.47;5033908;28;20049;-79
2023/09/12 08:52:06;;;;;;;11.90;8.68;;;;;;;22.45;65.55;99573.09;5033512;28;20061;-80
2023/09/12 08:54:33;;;;;;;10.90;9.55;;;;;;;22.48;65.41;99567.38;5033717;28;20045;-79
2023/09/12 08:57:05;;;;;;;9.48;8.30;;;;;;;22.49;65.94;99561.00;5033605;28;20071;-79
2023/09/12 08:59:33;;;;;;;9.20;8.25;;;;;;;22.53;65.46;99554.28;5033786;28;20052;-80
2023/09/12 09:02:00;;;;;;;8.77;7.88;;;;;;;22.57;65.25;99555.66;5015791;28;20073;-80
2023/09/12 09:04:32;;;;;;;10.00;8.95;;;;;;;22.59;65.70;99547.44;5033440;28;20064;-79
2023/09/12 09:06:59;;;;;;;12.02;8.13;;;;;;;22.62;65.29;99531.84;5033433;28;20094;-80
2023/09/12 09:09:28;;;;;;;10.35;8.00;;;;;;;22.65;65.18;99523.44;5033319;28;20065;-79
2023/09/12 09:11:55;;;;;;;11.90;8.65;;;;;;;22.67;65.07;99509.03;5033220;28;20131;-80
2023/09/12 09:14:22;;;;;;;10.50;8.40;;;;;;;22.69;65.30;99528.47;5033497;28;20049;-79
2023/09/12 09:16:49;;;;;;;12.02;8.65;;;;;;;22.70;65.32;99556.97;5033359;28;20053;-81
2023/09/12 09:19:18;;;;;;;9.60;7.57;;;;;;;22.72;65.28;99571.06;5032218;28;20050;-79
2023/09/12 09:21:45;;;;;;;9.70;7.32;;;;;;;22.75;65.30;99589.47;5032818;28;20096;-80
2023/09/12 09:24:15;;;;;;;10.85;8.20;;;;;;;22.77;65.49;99606.28;5015452;28;20041;-79
2023/09/12 09:26:41;;;;;;;9.98;8.85;;;;;;;22.80;65.36;99607.78;5033210;28;20041;-80
2023/09/12 09:29:10;;;;;;;13.05;9.90;;;;;;;22.82;65.32;99603.91;5033048;28;20535;-79
2023/09/12 09:31:41;;;;;;;10.85;9.35;;;;;;;22.82;65.73;99606.59;5032829;28;20046;-80
2023/09/12 09:34:17;;;;;;;13.07;9.77;;;;;;;22.81;65.80;99615.66;5033012;28;20046;-80
2023/09/12 09:36:56;;;;;;;14.32;9.10;;;;;;;22.80;65.50;99613.13;5032827;28;20049;-80
2023/09/12 09:39:26;;;;;;;11.63;8.68;;;;;;;22.85;65.22;99618.81;5032876;28;20477;-79
2023/09/12 09:41:54;;;;;;;9.75;8.55;;;;;;;22.86;65.60;99613.28;5032627;28;20052;-80
2023/09/12 09:44:26;;;;;;;11.55;7.70;;;;;;;22.88;66.14;99627.34;5015112;28;20144;-78
2023/09/12 09:47:02;;;;;;;10.52;8.73;;;;;;;22.91;66.46;99621.66;5032682;28;20053;-79
2023/09/12 09:49:35;;;;;;;9.85;8.52;;;;;;;23.03;67.27;99623.97;5032872;28;20126;-80
2023/09/12 09:52:05;;;;;;;10.60;8.88;;;;;;;23.17;67.31;99625.94;5032476;28;20489;-79
2023/09/12 09:54:32;;;;;;;11.85;9.45;;;;;;;23.32;67.37;99630.56;5032809;28;20053;-78
2023/09/12 09:56:59;;;;;;;10.90;8.65;;;;;;;23.48;67.18;99629.72;5032554;28;20091;-80
2023/09/12 09:59:27;;;;;;;9.65;8.70;;;;;;;23.62;66.23;99629.97;5032505;28;20081;-78
2023/09/12 10:01:57;;;;;;;9.32;8.32;;;;;;;23.76;66.32;99621.16;5032422;28;20045;-78
2023/09/12 10:04:27;;;;;;;10.85;8.73;;;;;;;23.91;66.48;99617.69;5014938;28;20048;-78
2023/09/12 10:06:57;;;;;;;10.10;8.98;;;;;;;24.05;66.34;99619.63;5032564;28;20087;-80
2023/09/12 10:09:26;;;;;;;9.70;8.70;;;;;;;24.24;67.10;99616.63;5032369;28;20141;-79
2023/09/12 10:11:56;;;;;;;9.82;8.52;;;;;;;24.42;66.20;99617.16;5031900;28;20041;-78
2023/09/12 10:14:25;;;;;;;10.30;8.52;;;;;;;24.63;65.94;99614.78;5032143;28;20045;-79
2023/09/12 10:16:58;;;;;;;9.40;7.55;;;;;;;24.80;66.00;99612.75;5032308;28;20088;-81
2023/09/12 10:19:30;;;;;;;10.23;8.35;;;;;;;25.01;66.38;99625.53;5032021;28;20052;-79
2023/09/12 10:22:16;;;;;;;9.77;7.78;;;;;;;25.18;66.61;99636.09;5031848;28;20124;-80
2023/09/12 10:24:45;;;;;;;9.45;7.40;;;;;;;25.41;64.85;99635.97;5014708;28;20042;-79
2023/09/12 10:27:13;;;;;;;9.77;8.50;;;;;;;25.62;64.79;99631.69;5032096;28;20104;-79
2023/09/12 10:29:39;;;;;;;11.48;8.93;;;;;;;25.82;65.02;99629.22;5014243;28;20053;-80
2023/09/12 10:32:08;;;;;;;8.77;7.88;;;;;;;26.02;64.19;99623.19;5031636;28;20048;-79
2023/09/12 10:34:37;;;;;;;9.35;7.82;;;;;;;26.23;63.37;99632.28;5031731;28;20158;-78
2023/09/12 10:37:05;;;;;;;9.57;7.55;;;;;;;26.43;62.52;99628.97;5031913;28;20068;-80
2023/09/12 10:39:32;;;;;;;8.45;6.88;;;;;;;26.59;62.20;99625.16;5031572;28;20048;-79
2023/09/12 10:42:03;;;;;;;10.05;7.60;;;;;;;26.71;61.67;99628.13;5031476;28;20048;-79
2023/09/12 10:44:31;;;;;;;8.15;7.32;;;;;;;26.81;60.78;99623.22;5031743;28;20046;-80
2023/09/12 10:46:58;;;;;;;9.70;7.53;;;;;;;26.89;60.14;99625.78;5031661;28;20045;-81
2023/09/12 10:49:25;;;;;;;8.73;7.82;;;;;;;26.98;60.28;99637.28;5031459;28;20049;-79
2023/09/12 10:51:53;;;;;;;9.05;6.65;;;;;;;27.07;59.23;99637.97;5013821;28;20444;-80
2023/09/12 10:54:26;;;;;;;7.43;6.72;;;;;;;27.11;58.32;99639.22;5031600;28;20103;-80
2023/09/12 10:57:03;;;;;;;7.60;6.87;;;;;;;27.15;57.71;99637.78;5031523;28;20487;-79
2023/09/12 10:59:35;;;;;;;8.57;7.30;;;;;;;27.22;58.27;99631.56;5031367;28;20080;-78
2023/09/12 11:02:28;;;;;;;7.53;6.83;;;;;;;27.19;58.47;99636.34;5031053;28;20103;-79
2023/09/12 11:04:55;;;;;;;8.32;6.63;;;;;;;27.28;57.69;99633.50;5031423;28;20126;-80
2023/09/12 11:07:36;;;;;;;8.02;6.78;;;;;;;27.24;57.29;99632.22;5031350;28;20092;-80
2023/09/12 11:10:16;;;;;;;8.15;7.20;;;;;;;27.24;58.11;99638.44;5031133;28;20096;-80
2023/09/12 11:12:43;;;;;;;11.15;8.48;;;;;;;27.28;57.57;99644.31;5031054;28;20049;-80
2023/09/12 11:15:10;;;;;;;8.85;8.02;;;;;;;27.28;57.49;99647.00;5031017;28;20045;-79
2023/09/12 11:17:38;;;;;;;7.88;7.13;;;;;;;27.27;57.90;99648.88;5031110;28;20564;-80
2023/09/12 11:20:10;;;;;;;8.05;7.25;;;;;;;27.36;59.41;99644.09;5031095;28;20084;-79
2023/09/12 11:22:41;;;;;;;8.75;7.53;;;;;;;27.52;57.89;99648.34;5030728;28;20041;-80
2023/09/12 12:23:16;;;;;;;7.82;4.43;;;;;;;33.51;46.68;99592.81;5144736;22;20099;-76
2023/09/12 12:25:42;;;;;;;5.72;4.25;;;;;;;33.55;45.34;99590.44;5037238;28;20045;-76
2023/09/12 12:28:09;;;;;;;5.70;4.75;;;;;;;33.46;44.29;99583.69;5037097;28;20053;-76
2023/09/12 12:30:36;;;;;;;6.63;4.70;;;;;;;33.22;44.10;99578.34;5036974;28;20108;-76